sensor_id;sensor_type;location;lat;lon;timestamp;P1;durP1;ratioP1;P2;durP2;ratioP2
16757;SDS011;8497;51.346;12.396;2024-03-08T00:02:26;29.33;;;19.10;;
16757;SDS011;8497;51.346;12.396;2024-03-08T00:04:55;35.63;;;20.87;;
16757;SDS011;8497;51.346;12.396;2024-03-08T00:07:24;37.90;;;20.53;;
16757;SDS011;8497;51.346;12.396;2024-03-08T00:13:24;35.87;;;20.60;;
16757;SDS011;8497;51.346;12.396;2024-03-08T00:15:59;37.97;;;21.30;;
16757;SDS011;8497;51.346;12.396;2024-03-08T00:18:37;36.27;;;20.23;;
16757;SDS011;8497;51.346;12.396;2024-03-08T00:21:08;33.30;;;20.60;;
16757;SDS011;8497;51.346;12.396;2024-03-08T00:23:48;34.10;;;20.40;;
16757;SDS011;8497;51.346;12.396;2024-03-08T00:26:20;34.20;;;19.57;;
16757;SDS011;8497;51.346;12.396;2024-03-08T00:28:52;38.67;;;20.43;;
16757;SDS011;8497;51.346;12.396;2024-03-08T00:31:22;35.43;;;20.83;;
16757;SDS011;8497;51.346;12.396;2024-03-08T00:34:00;37.13;;;21.50;;
16757;SDS011;8497;51.346;12.396;2024-03-08T00:36:29;35.30;;;20.93;;
16757;SDS011;8497;51.346;12.396;2024-03-08T00:38:58;33.80;;;21.40;;
16757;SDS011;8497;51.346;12.396;2024-03-08T00:41:34;36.97;;;21.30;;
16757;SDS011;8497;51.346;12.396;2024-03-08T00:47:40;37.20;;;20.83;;
16757;SDS011;8497;51.346;12.396;2024-03-08T00:50:37;34.87;;;20.17;;
16757;SDS011;8497;51.346;12.396;2024-03-08T00:53:10;33.30;;;21.30;;
16757;SDS011;8497;51.346;12.396;2024-03-08T00:55:52;36.70;;;20.43;;
16757;SDS011;8497;51.346;12.396;2024-03-08T00:58:45;34.37;;;21.67;;
16757;SDS011;8497;51.346;12.396;2024-03-08T01:05:08;36.73;;;21.00;;
16757;SDS011;8497;51.346;12.396;2024-03-08T01:07:43;33.53;;;20.83;;
16757;SDS011;8497;51.346;12.396;2024-03-08T01:10:58;37.27;;;20.93;;
16757;SDS011;8497;51.346;12.396;2024-03-08T01:13:44;34.10;;;19.73;;
16757;SDS011;8497;51.346;12.396;2024-03-08T01:16:22;34.57;;;21.00;;
16757;SDS011;8497;51.346;12.396;2024-03-08T01:19:20;34.17;;;20.67;;
16757;SDS011;8497;51.346;12.396;2024-03-08T01:21:52;31.33;;;19.97;;
16757;SDS011;8497;51.346;12.396;2024-03-08T01:24:41;33.80;;;20.60;;
16757;SDS011;8497;51.346;12.396;2024-03-08T01:27:22;34.30;;;20.23;;
16757;SDS011;8497;51.346;12.396;2024-03-08T01:30:31;35.67;;;20.63;;
16757;SDS011;8497;51.346;12.396;2024-03-08T01:33:17;34.20;;;21.17;;
16757;SDS011;8497;51.346;12.396;2024-03-08T01:36:04;36.87;;;20.27;;
16757;SDS011;8497;51.346;12.396;2024-03-08T01:42:03;32.63;;;18.87;;
16757;SDS011;8497;51.346;12.396;2024-03-08T01:44:38;37.37;;;20.43;;
16757;SDS011;8497;51.346;12.396;2024-03-08T01:47:11;32.67;;;19.60;;
16757;SDS011;8497;51.346;12.396;2024-03-08T01:49:43;34.03;;;20.33;;
16757;SDS011;8497;51.346;12.396;2024-03-08T01:52:14;35.90;;;20.87;;
16757;SDS011;8497;51.346;12.396;2024-03-08T01:54:51;32.43;;;20.07;;
16757;SDS011;8497;51.346;12.396;2024-03-08T01:57:41;34.40;;;19.93;;
16757;SDS011;8497;51.346;12.396;2024-03-08T02:00:12;36.80;;;19.90;;
16757;SDS011;8497;51.346;12.396;2024-03-08T02:02:44;36.27;;;20.50;;
16757;SDS011;8497;51.346;12.396;2024-03-08T02:05:21;33.30;;;19.60;;
16757;SDS011;8497;51.346;12.396;2024-03-08T02:08:06;32.23;;;20.67;;
16757;SDS011;8497;51.346;12.396;2024-03-08T02:10:53;37.63;;;20.73;;
16757;SDS011;8497;51.346;12.396;2024-03-08T02:16:42;34.20;;;18.83;;
16757;SDS011;8497;51.346;12.396;2024-03-08T02:19:37;36.70;;;19.93;;
16757;SDS011;8497;51.346;12.396;2024-03-08T02:22:13;33.17;;;19.90;;
16757;SDS011;8497;51.346;12.396;2024-03-08T02:24:47;38.40;;;21.50;;
16757;SDS011;8497;51.346;12.396;2024-03-08T02:27:23;37.30;;;19.87;;
16757;SDS011;8497;51.346;12.396;2024-03-08T02:29:56;32.73;;;20.07;;
16757;SDS011;8497;51.346;12.396;2024-03-08T02:32:29;35.27;;;19.23;;
16757;SDS011;8497;51.346;12.396;2024-03-08T02:35:06;35.23;;;20.37;;
16757;SDS011;8497;51.346;12.396;2024-03-08T02:37:45;34.70;;;20.13;;
16757;SDS011;8497;51.346;12.396;2024-03-08T02:40:22;32.17;;;19.20;;
16757;SDS011;8497;51.346;12.396;2024-03-08T02:42:59;33.97;;;20.50;;
16757;SDS011;8497;51.346;12.396;2024-03-08T02:45:42;34.60;;;19.97;;
16757;SDS011;8497;51.346;12.396;2024-03-08T02:48:15;34.13;;;20.03;;
16757;SDS011;8497;51.346;12.396;2024-03-08T02:51:01;31.13;;;18.43;;
16757;SDS011;8497;51.346;12.396;2024-03-08T02:54:19;32.70;;;18.20;;
16757;SDS011;8497;51.346;12.396;2024-03-08T02:56:48;34.57;;;19.77;;
16757;SDS011;8497;51.346;12.396;2024-03-08T02:59:17;33.23;;;19.07;;
16757;SDS011;8497;51.346;12.396;2024-03-08T03:01:50;33.63;;;20.30;;
16757;SDS011;8497;51.346;12.396;2024-03-08T03:04:29;36.97;;;18.87;;
16757;SDS011;8497;51.346;12.396;2024-03-08T03:07:08;33.90;;;19.87;;
16757;SDS011;8497;51.346;12.396;2024-03-08T03:13:06;32.10;;;19.07;;
16757;SDS011;8497;51.346;12.396;2024-03-08T03:16:08;30.77;;;17.97;;
16757;SDS011;8497;51.346;12.396;2024-03-08T03:18:52;33.07;;;18.17;;
16757;SDS011;8497;51.346;12.396;2024-03-08T03:21:32;34.73;;;19.23;;
16757;SDS011;8497;51.346;12.396;2024-03-08T03:24:11;36.67;;;21.07;;
16757;SDS011;8497;51.346;12.396;2024-03-08T03:26:47;31.23;;;19.47;;
16757;SDS011;8497;51.346;12.396;2024-03-08T03:29:16;35.23;;;19.00;;
16757;SDS011;8497;51.346;12.396;2024-03-08T03:31:51;31.90;;;19.03;;
16757;SDS011;8497;51.346;12.396;2024-03-08T03:34:20;34.73;;;19.40;;
16757;SDS011;8497;51.346;12.396;2024-03-08T03:36:49;34.37;;;19.47;;
16757;SDS011;8497;51.346;12.396;2024-03-08T03:39:34;32.93;;;19.17;;
16757;SDS011;8497;51.346;12.396;2024-03-08T03:45:07;34.60;;;19.33;;
16757;SDS011;8497;51.346;12.396;2024-03-08T03:47:46;29.17;;;17.80;;
16757;SDS011;8497;51.346;12.396;2024-03-08T03:50:15;36.03;;;20.17;;
16757;SDS011;8497;51.346;12.396;2024-03-08T03:52:45;35.27;;;19.30;;
16757;SDS011;8497;51.346;12.396;2024-03-08T03:55:15;30.80;;;18.60;;
16757;SDS011;8497;51.346;12.396;2024-03-08T03:57:45;37.03;;;19.70;;
16757;SDS011;8497;51.346;12.396;2024-03-08T04:00:17;36.77;;;20.73;;
16757;SDS011;8497;51.346;12.396;2024-03-08T04:02:47;35.17;;;19.33;;
16757;SDS011;8497;51.346;12.396;2024-03-08T04:05:19;35.10;;;19.80;;
16757;SDS011;8497;51.346;12.396;2024-03-08T04:07:55;31.40;;;19.13;;
16757;SDS011;8497;51.346;12.396;2024-03-08T04:10:35;35.17;;;20.27;;
16757;SDS011;8497;51.346;12.396;2024-03-08T04:13:20;34.23;;;19.87;;
16757;SDS011;8497;51.346;12.396;2024-03-08T04:16:01;33.57;;;19.77;;
16757;SDS011;8497;51.346;12.396;2024-03-08T04:18:48;33.60;;;19.93;;
16757;SDS011;8497;51.346;12.396;2024-03-08T04:21:23;32.30;;;19.57;;
16757;SDS011;8497;51.346;12.396;2024-03-08T04:24:09;32.40;;;19.07;;
16757;SDS011;8497;51.346;12.396;2024-03-08T04:27:15;39.70;;;19.60;;
16757;SDS011;8497;51.346;12.396;2024-03-08T04:33:04;36.60;;;20.30;;
16757;SDS011;8497;51.346;12.396;2024-03-08T04:36:04;37.60;;;20.10;;
16757;SDS011;8497;51.346;12.396;2024-03-08T04:38:44;33.10;;;19.53;;
16757;SDS011;8497;51.346;12.396;2024-03-08T04:41:31;34.53;;;20.27;;
16757;SDS011;8497;51.346;12.396;2024-03-08T04:44:06;36.10;;;19.63;;
16757;SDS011;8497;51.346;12.396;2024-03-08T04:49:44;37.10;;;20.93;;
16757;SDS011;8497;51.346;12.396;2024-03-08T04:52:28;33.30;;;19.33;;
16757;SDS011;8497;51.346;12.396;2024-03-08T04:55:00;35.13;;;20.33;;
16757;SDS011;8497;51.346;12.396;2024-03-08T04:57:33;32.33;;;19.13;;
16757;SDS011;8497;51.346;12.396;2024-03-08T05:00:04;33.93;;;19.23;;
16757;SDS011;8497;51.346;12.396;2024-03-08T05:02:40;36.07;;;19.93;;
16757;SDS011;8497;51.346;12.396;2024-03-08T05:05:09;37.07;;;20.03;;
16757;SDS011;8497;51.346;12.396;2024-03-08T05:07:39;36.47;;;19.47;;
16757;SDS011;8497;51.346;12.396;2024-03-08T05:10:12;37.00;;;20.60;;
16757;SDS011;8497;51.346;12.396;2024-03-08T05:13:21;32.53;;;20.23;;
16757;SDS011;8497;51.346;12.396;2024-03-08T05:15:51;35.43;;;20.50;;
16757;SDS011;8497;51.346;12.396;2024-03-08T05:18:28;37.93;;;21.07;;
16757;SDS011;8497;51.346;12.396;2024-03-08T05:21:02;32.57;;;19.10;;
16757;SDS011;8497;51.346;12.396;2024-03-08T05:23:46;36.50;;;20.23;;
16757;SDS011;8497;51.346;12.396;2024-03-08T05:26:25;33.67;;;20.17;;
16757;SDS011;8497;51.346;12.396;2024-03-08T05:29:04;37.27;;;18.87;;
16757;SDS011;8497;51.346;12.396;2024-03-08T05:31:45;37.63;;;20.90;;
16757;SDS011;8497;51.346;12.396;2024-03-08T05:34:46;36.17;;;20.73;;
16757;SDS011;8497;51.346;12.396;2024-03-08T05:37:44;36.33;;;20.67;;
16757;SDS011;8497;51.346;12.396;2024-03-08T05:40:33;35.27;;;19.90;;
16757;SDS011;8497;51.346;12.396;2024-03-08T05:43:01;37.57;;;21.17;;
16757;SDS011;8497;51.346;12.396;2024-03-08T05:45:31;32.03;;;19.30;;
16757;SDS011;8497;51.346;12.396;2024-03-08T05:48:00;37.90;;;21.53;;
16757;SDS011;8497;51.346;12.396;2024-03-08T05:50:37;41.27;;;22.73;;
16757;SDS011;8497;51.346;12.396;2024-03-08T05:53:10;35.50;;;21.50;;
16757;SDS011;8497;51.346;12.396;2024-03-08T05:56:44;35.97;;;21.63;;
16757;SDS011;8497;51.346;12.396;2024-03-08T05:59:28;40.10;;;22.07;;
16757;SDS011;8497;51.346;12.396;2024-03-08T06:02:14;38.00;;;21.07;;
16757;SDS011;8497;51.346;12.396;2024-03-08T06:05:01;35.37;;;21.13;;
16757;SDS011;8497;51.346;12.396;2024-03-08T06:07:46;37.20;;;20.50;;
16757;SDS011;8497;51.346;12.396;2024-03-08T06:10:15;40.53;;;22.27;;
16757;SDS011;8497;51.346;12.396;2024-03-08T06:12:47;37.30;;;20.93;;
16757;SDS011;8497;51.346;12.396;2024-03-08T06:15:22;37.00;;;21.50;;
16757;SDS011;8497;51.346;12.396;2024-03-08T06:18:02;37.67;;;20.63;;
16757;SDS011;8497;51.346;12.396;2024-03-08T06:21:04;39.87;;;21.63;;
16757;SDS011;8497;51.346;12.396;2024-03-08T06:26:46;38.13;;;21.07;;
16757;SDS011;8497;51.346;12.396;2024-03-08T06:29:32;42.77;;;21.90;;
16757;SDS011;8497;51.346;12.396;2024-03-08T06:32:31;37.10;;;20.73;;
16757;SDS011;8497;51.346;12.396;2024-03-08T06:35:17;42.73;;;23.07;;
16757;SDS011;8497;51.346;12.396;2024-03-08T06:38:04;38.73;;;21.83;;
16757;SDS011;8497;51.346;12.396;2024-03-08T06:40:57;47.03;;;23.07;;
16757;SDS011;8497;51.346;12.396;2024-03-08T06:43:36;45.27;;;23.27;;
16757;SDS011;8497;51.346;12.396;2024-03-08T06:46:16;38.40;;;22.50;;
16757;SDS011;8497;51.346;12.396;2024-03-08T06:48:49;41.70;;;22.50;;
16757;SDS011;8497;51.346;12.396;2024-03-08T06:51:34;48.03;;;23.83;;
16757;SDS011;8497;51.346;12.396;2024-03-08T06:54:14;44.60;;;24.47;;
16757;SDS011;8497;51.346;12.396;2024-03-08T06:56:54;42.10;;;23.93;;
16757;SDS011;8497;51.346;12.396;2024-03-08T06:59:38;40.63;;;23.03;;
16757;SDS011;8497;51.346;12.396;2024-03-08T07:02:10;49.70;;;24.53;;
16757;SDS011;8497;51.346;12.396;2024-03-08T07:04:48;40.33;;;21.57;;
16757;SDS011;8497;51.346;12.396;2024-03-08T07:07:33;45.33;;;23.13;;
16757;SDS011;8497;51.346;12.396;2024-03-08T07:10:08;40.87;;;22.87;;
16757;SDS011;8497;51.346;12.396;2024-03-08T07:12:51;47.77;;;23.73;;
16757;SDS011;8497;51.346;12.396;2024-03-08T07:15:47;42.40;;;23.60;;
16757;SDS011;8497;51.346;12.396;2024-03-08T07:18:26;44.67;;;23.73;;
16757;SDS011;8497;51.346;12.396;2024-03-08T07:21:27;41.77;;;24.33;;
16757;SDS011;8497;51.346;12.396;2024-03-08T07:24:13;39.57;;;22.77;;
16757;SDS011;8497;51.346;12.396;2024-03-08T07:27:09;41.43;;;23.33;;
16757;SDS011;8497;51.346;12.396;2024-03-08T07:33:11;40.47;;;23.90;;
16757;SDS011;8497;51.346;12.396;2024-03-08T07:35:42;40.47;;;23.20;;
16757;SDS011;8497;51.346;12.396;2024-03-08T07:38:13;41.07;;;22.60;;
16757;SDS011;8497;51.346;12.396;2024-03-08T07:40:56;43.60;;;23.30;;
16757;SDS011;8497;51.346;12.396;2024-03-08T07:43:33;37.13;;;22.17;;
16757;SDS011;8497;51.346;12.396;2024-03-08T07:46:03;44.33;;;23.33;;
16757;SDS011;8497;51.346;12.396;2024-03-08T07:48:32;41.93;;;24.37;;
16757;SDS011;8497;51.346;12.396;2024-03-08T07:51:02;40.23;;;22.30;;
16757;SDS011;8497;51.346;12.396;2024-03-08T07:53:31;38.43;;;22.27;;
16757;SDS011;8497;51.346;12.396;2024-03-08T07:56:00;42.53;;;23.90;;
16757;SDS011;8497;51.346;12.396;2024-03-08T07:58:29;37.70;;;22.77;;
16757;SDS011;8497;51.346;12.396;2024-03-08T08:01:00;40.87;;;22.13;;
16757;SDS011;8497;51.346;12.396;2024-03-08T08:03:30;40.67;;;23.27;;
16757;SDS011;8497;51.346;12.396;2024-03-08T08:06:01;40.77;;;21.97;;
16757;SDS011;8497;51.346;12.396;2024-03-08T08:10:55;38.23;;;21.43;;
16757;SDS011;8497;51.346;12.396;2024-03-08T08:12:51;39.17;;;21.83;;
16757;SDS011;8497;51.346;12.396;2024-03-08T08:15:35;40.93;;;23.27;;
16757;SDS011;8497;51.346;12.396;2024-03-08T08:21:22;38.33;;;21.37;;
16757;SDS011;8497;51.346;12.396;2024-03-08T08:24:02;39.00;;;22.90;;
16757;SDS011;8497;51.346;12.396;2024-03-08T08:26:37;39.47;;;24.17;;
16757;SDS011;8497;51.346;12.396;2024-03-08T08:29:12;40.17;;;22.80;;
16757;SDS011;8497;51.346;12.396;2024-03-08T08:31:51;40.17;;;23.00;;
16757;SDS011;8497;51.346;12.396;2024-03-08T08:37:31;34.93;;;21.80;;
16757;SDS011;8497;51.346;12.396;2024-03-08T08:40:41;39.33;;;23.13;;
16757;SDS011;8497;51.346;12.396;2024-03-08T08:43:14;36.03;;;22.27;;
16757;SDS011;8497;51.346;12.396;2024-03-08T08:45:53;41.20;;;23.43;;
16757;SDS011;8497;51.346;12.396;2024-03-08T08:48:38;39.50;;;23.53;;
16757;SDS011;8497;51.346;12.396;2024-03-08T08:51:10;39.00;;;21.93;;
16757;SDS011;8497;51.346;12.396;2024-03-08T08:53:39;44.00;;;23.80;;
16757;SDS011;8497;51.346;12.396;2024-03-08T08:56:11;40.17;;;22.47;;
16757;SDS011;8497;51.346;12.396;2024-03-08T08:58:40;33.40;;;21.77;;
16757;SDS011;8497;51.346;12.396;2024-03-08T09:01:09;37.37;;;21.93;;
16757;SDS011;8497;51.346;12.396;2024-03-08T09:03:40;38.17;;;22.73;;
16757;SDS011;8497;51.346;12.396;2024-03-08T09:06:14;40.40;;;23.77;;
16757;SDS011;8497;51.346;12.396;2024-03-08T09:08:43;39.53;;;23.83;;
16757;SDS011;8497;51.346;12.396;2024-03-08T09:11:12;36.30;;;22.70;;
16757;SDS011;8497;51.346;12.396;2024-03-08T09:13:43;42.37;;;23.30;;
16757;SDS011;8497;51.346;12.396;2024-03-08T09:16:13;40.97;;;23.73;;
16757;SDS011;8497;51.346;12.396;2024-03-08T09:18:42;38.97;;;23.50;;
16757;SDS011;8497;51.346;12.396;2024-03-08T09:21:11;39.90;;;23.50;;
16757;SDS011;8497;51.346;12.396;2024-03-08T09:23:41;48.13;;;24.67;;
16757;SDS011;8497;51.346;12.396;2024-03-08T09:26:11;39.53;;;22.57;;
16757;SDS011;8497;51.346;12.396;2024-03-08T09:28:53;38.60;;;22.53;;
16757;SDS011;8497;51.346;12.396;2024-03-08T09:31:22;39.37;;;22.27;;
16757;SDS011;8497;51.346;12.396;2024-03-08T09:33:52;36.70;;;23.77;;
16757;SDS011;8497;51.346;12.396;2024-03-08T09:36:22;41.23;;;22.87;;
16757;SDS011;8497;51.346;12.396;2024-03-08T09:38:51;37.37;;;22.73;;
16757;SDS011;8497;51.346;12.396;2024-03-08T09:41:42;37.30;;;22.03;;
16757;SDS011;8497;51.346;12.396;2024-03-08T09:44:19;34.07;;;21.93;;
16757;SDS011;8497;51.346;12.396;2024-03-08T09:46:58;38.50;;;23.33;;
16757;SDS011;8497;51.346;12.396;2024-03-08T09:49:33;38.70;;;24.43;;
16757;SDS011;8497;51.346;12.396;2024-03-08T09:52:33;40.50;;;24.27;;
16757;SDS011;8497;51.346;12.396;2024-03-08T09:55:29;34.87;;;23.07;;
16757;SDS011;8497;51.346;12.396;2024-03-08T09:58:17;51.23;;;25.60;;
16757;SDS011;8497;51.346;12.396;2024-03-08T10:01:23;41.83;;;23.97;;
16757;SDS011;8497;51.346;12.396;2024-03-08T10:04:03;42.20;;;24.73;;
16757;SDS011;8497;51.346;12.396;2024-03-08T10:06:46;38.17;;;24.57;;
16757;SDS011;8497;51.346;12.396;2024-03-08T10:09:27;38.07;;;24.10;;
16757;SDS011;8497;51.346;12.396;2024-03-08T10:11:59;38.33;;;22.37;;
16757;SDS011;8497;51.346;12.396;2024-03-08T10:14:32;34.70;;;21.33;;
16757;SDS011;8497;51.346;12.396;2024-03-08T10:17:09;33.83;;;20.53;;
16757;SDS011;8497;51.346;12.396;2024-03-08T10:20:06;36.40;;;22.60;;
16757;SDS011;8497;51.346;12.396;2024-03-08T10:22:58;36.40;;;22.47;;
16757;SDS011;8497;51.346;12.396;2024-03-08T10:29:04;34.07;;;21.30;;
16757;SDS011;8497;51.346;12.396;2024-03-08T10:31:35;41.10;;;22.00;;
16757;SDS011;8497;51.346;12.396;2024-03-08T10:34:06;38.23;;;22.53;;
16757;SDS011;8497;51.346;12.396;2024-03-08T10:37:06;31.93;;;20.47;;
16757;SDS011;8497;51.346;12.396;2024-03-08T10:40:00;32.47;;;19.60;;
16757;SDS011;8497;51.346;12.396;2024-03-08T10:42:47;35.10;;;20.77;;
16757;SDS011;8497;51.346;12.396;2024-03-08T10:45:34;38.63;;;21.67;;
16757;SDS011;8497;51.346;12.396;2024-03-08T10:48:26;39.07;;;21.20;;
16757;SDS011;8497;51.346;12.396;2024-03-08T10:51:05;38.10;;;19.60;;
16757;SDS011;8497;51.346;12.396;2024-03-08T10:53:37;32.20;;;19.27;;
16757;SDS011;8497;51.346;12.396;2024-03-08T10:56:08;33.73;;;19.57;;
16757;SDS011;8497;51.346;12.396;2024-03-08T10:58:41;30.70;;;19.10;;
16757;SDS011;8497;51.346;12.396;2024-03-08T11:01:14;34.93;;;20.73;;
16757;SDS011;8497;51.346;12.396;2024-03-08T11:03:45;32.17;;;20.67;;
16757;SDS011;8497;51.346;12.396;2024-03-08T11:06:29;33.73;;;20.80;;
16757;SDS011;8497;51.346;12.396;2024-03-08T11:09:44;35.50;;;20.73;;
16757;SDS011;8497;51.346;12.396;2024-03-08T11:12:23;34.33;;;20.97;;
16757;SDS011;8497;51.346;12.396;2024-03-08T11:14:58;33.07;;;19.80;;
16757;SDS011;8497;51.346;12.396;2024-03-08T11:17:40;37.90;;;22.73;;
16757;SDS011;8497;51.346;12.396;2024-03-08T11:20:15;34.40;;;22.03;;
16757;SDS011;8497;51.346;12.396;2024-03-08T11:22:48;32.20;;;20.97;;
16757;SDS011;8497;51.346;12.396;2024-03-08T11:25:32;33.67;;;20.60;;
16757;SDS011;8497;51.346;12.396;2024-03-08T11:28:13;37.67;;;21.27;;
16757;SDS011;8497;51.346;12.396;2024-03-08T11:30:46;38.93;;;20.57;;
16757;SDS011;8497;51.346;12.396;2024-03-08T11:33:53;34.03;;;21.17;;
16757;SDS011;8497;51.346;12.396;2024-03-08T11:36:23;36.23;;;21.50;;
16757;SDS011;8497;51.346;12.396;2024-03-08T11:38:52;31.87;;;19.37;;
16757;SDS011;8497;51.346;12.396;2024-03-08T11:41:23;30.13;;;19.83;;
16757;SDS011;8497;51.346;12.396;2024-03-08T11:44:01;30.53;;;18.53;;
16757;SDS011;8497;51.346;12.396;2024-03-08T11:46:34;28.10;;;19.00;;
16757;SDS011;8497;51.346;12.396;2024-03-08T11:49:03;30.77;;;20.50;;
16757;SDS011;8497;51.346;12.396;2024-03-08T11:51:32;32.93;;;20.30;;
16757;SDS011;8497;51.346;12.396;2024-03-08T11:54:01;33.57;;;20.73;;
16757;SDS011;8497;51.346;12.396;2024-03-08T11:56:30;38.60;;;22.40;;
16757;SDS011;8497;51.346;12.396;2024-03-08T11:59:00;32.80;;;20.77;;
16757;SDS011;8497;51.346;12.396;2024-03-08T12:01:31;32.40;;;19.80;;
16757;SDS011;8497;51.346;12.396;2024-03-08T12:04:01;35.53;;;18.77;;
16757;SDS011;8497;51.346;12.396;2024-03-08T12:06:39;31.13;;;16.80;;
16757;SDS011;8497;51.346;12.396;2024-03-08T12:09:08;26.73;;;17.40;;
16757;SDS011;8497;51.346;12.396;2024-03-08T12:11:37;28.60;;;18.57;;
16757;SDS011;8497;51.346;12.396;2024-03-08T12:14:07;27.07;;;18.57;;
16757;SDS011;8497;51.346;12.396;2024-03-08T12:16:37;33.70;;;19.37;;
16757;SDS011;8497;51.346;12.396;2024-03-08T12:19:07;35.33;;;21.23;;
16757;SDS011;8497;51.346;12.396;2024-03-08T12:21:37;43.87;;;20.00;;
16757;SDS011;8497;51.346;12.396;2024-03-08T12:24:14;25.93;;;18.53;;
16757;SDS011;8497;51.346;12.396;2024-03-08T12:26:45;28.90;;;18.67;;
16757;SDS011;8497;51.346;12.396;2024-03-08T12:29:18;32.83;;;20.00;;
16757;SDS011;8497;51.346;12.396;2024-03-08T12:31:51;33.47;;;20.07;;
16757;SDS011;8497;51.346;12.396;2024-03-08T12:34:22;29.43;;;20.13;;
16757;SDS011;8497;51.346;12.396;2024-03-08T12:36:51;32.83;;;21.47;;
16757;SDS011;8497;51.346;12.396;2024-03-08T12:39:21;32.07;;;20.70;;
16757;SDS011;8497;51.346;12.396;2024-03-08T12:41:54;28.90;;;19.93;;
16757;SDS011;8497;51.346;12.396;2024-03-08T12:44:24;28.40;;;19.67;;
16757;SDS011;8497;51.346;12.396;2024-03-08T12:46:54;32.53;;;20.97;;
16757;SDS011;8497;51.346;12.396;2024-03-08T12:49:27;34.40;;;21.50;;
16757;SDS011;8497;51.346;12.396;2024-03-08T12:52:08;42.00;;;24.43;;
16757;SDS011;8497;51.346;12.396;2024-03-08T12:55:35;28.90;;;21.50;;
16757;SDS011;8497;51.346;12.396;2024-03-08T12:58:31;35.30;;;22.00;;
16757;SDS011;8497;51.346;12.396;2024-03-08T13:01:15;30.83;;;21.90;;
16757;SDS011;8497;51.346;12.396;2024-03-08T13:04:03;32.77;;;22.17;;
16757;SDS011;8497;51.346;12.396;2024-03-08T13:07:06;36.00;;;21.60;;
16757;SDS011;8497;51.346;12.396;2024-03-08T13:09:52;34.27;;;22.23;;
16757;SDS011;8497;51.346;12.396;2024-03-08T13:13:24;36.63;;;22.63;;
16757;SDS011;8497;51.346;12.396;2024-03-08T13:16:03;33.33;;;22.80;;
16757;SDS011;8497;51.346;12.396;2024-03-08T13:19:06;34.20;;;21.33;;
16757;SDS011;8497;51.346;12.396;2024-03-08T13:21:44;32.80;;;22.27;;
16757;SDS011;8497;51.346;12.396;2024-03-08T13:27:33;33.77;;;21.27;;
16757;SDS011;8497;51.346;12.396;2024-03-08T13:30:10;33.40;;;21.47;;
16757;SDS011;8497;51.346;12.396;2024-03-08T13:33:15;33.00;;;20.83;;
16757;SDS011;8497;51.346;12.396;2024-03-08T13:36:17;31.97;;;21.70;;
16757;SDS011;8497;51.346;12.396;2024-03-08T13:39:16;32.07;;;21.13;;
16757;SDS011;8497;51.346;12.396;2024-03-08T13:42:02;33.17;;;21.37;;
16757;SDS011;8497;51.346;12.396;2024-03-08T13:44:56;30.20;;;21.40;;
16757;SDS011;8497;51.346;12.396;2024-03-08T13:47:37;31.53;;;20.47;;
16757;SDS011;8497;51.346;12.396;2024-03-08T13:50:22;31.53;;;21.80;;
16757;SDS011;8497;51.346;12.396;2024-03-08T13:53:08;32.93;;;22.13;;
16757;SDS011;8497;51.346;12.396;2024-03-08T13:56:18;34.10;;;21.67;;
16757;SDS011;8497;51.346;12.396;2024-03-08T14:02:23;30.40;;;20.43;;
16757;SDS011;8497;51.346;12.396;2024-03-08T14:04:54;31.03;;;20.97;;
16757;SDS011;8497;51.346;12.396;2024-03-08T14:07:24;31.57;;;21.87;;
16757;SDS011;8497;51.346;12.396;2024-03-08T14:09:55;33.97;;;22.23;;
16757;SDS011;8497;51.346;12.396;2024-03-08T14:12:25;38.40;;;21.83;;
16757;SDS011;8497;51.346;12.396;2024-03-08T14:14:56;34.73;;;22.00;;
16757;SDS011;8497;51.346;12.396;2024-03-08T14:17:35;34.27;;;21.90;;
16757;SDS011;8497;51.346;12.396;2024-03-08T14:20:04;31.40;;;21.10;;
16757;SDS011;8497;51.346;12.396;2024-03-08T14:22:54;29.93;;;20.73;;
16757;SDS011;8497;51.346;12.396;2024-03-08T14:26:54;29.23;;;20.13;;
16757;SDS011;8497;51.346;12.396;2024-03-08T14:28:49;34.27;;;21.70;;
16757;SDS011;8497;51.346;12.396;2024-03-08T14:31:21;31.27;;;20.53;;
16757;SDS011;8497;51.346;12.396;2024-03-08T14:33:56;35.77;;;23.03;;
16757;SDS011;8497;51.346;12.396;2024-03-08T14:36:35;32.17;;;21.43;;
16757;SDS011;8497;51.346;12.396;2024-03-08T14:39:18;32.90;;;21.97;;
16757;SDS011;8497;51.346;12.396;2024-03-08T14:41:57;32.97;;;21.20;;
16757;SDS011;8497;51.346;12.396;2024-03-08T14:44:51;33.90;;;20.23;;
16757;SDS011;8497;51.346;12.396;2024-03-08T14:47:37;31.90;;;21.53;;
16757;SDS011;8497;51.346;12.396;2024-03-08T14:53:20;31.60;;;19.70;;
16757;SDS011;8497;51.346;12.396;2024-03-08T14:56:18;32.93;;;21.10;;
16757;SDS011;8497;51.346;12.396;2024-03-08T14:58:48;32.63;;;22.27;;
16757;SDS011;8497;51.346;12.396;2024-03-08T15:01:22;37.23;;;21.40;;
16757;SDS011;8497;51.346;12.396;2024-03-08T15:03:56;32.40;;;21.20;;
16757;SDS011;8497;51.346;12.396;2024-03-08T15:09:59;34.17;;;22.77;;
16757;SDS011;8497;51.346;12.396;2024-03-08T15:12:40;34.07;;;21.30;;
16757;SDS011;8497;51.346;12.396;2024-03-08T15:15:17;30.03;;;20.50;;
16757;SDS011;8497;51.346;12.396;2024-03-08T15:18:46;31.80;;;20.60;;
16757;SDS011;8497;51.346;12.396;2024-03-08T15:21:26;31.27;;;21.20;;
16757;SDS011;8497;51.346;12.396;2024-03-08T15:23:56;30.73;;;19.97;;
16757;SDS011;8497;51.346;12.396;2024-03-08T15:26:26;31.83;;;20.83;;
16757;SDS011;8497;51.346;12.396;2024-03-08T15:28:56;30.53;;;20.80;;
16757;SDS011;8497;51.346;12.396;2024-03-08T15:31:26;30.83;;;20.63;;
16757;SDS011;8497;51.346;12.396;2024-03-08T15:33:56;31.47;;;19.67;;
16757;SDS011;8497;51.346;12.396;2024-03-08T15:36:27;32.43;;;21.30;;
16757;SDS011;8497;51.346;12.396;2024-03-08T15:38:59;31.50;;;20.27;;
16757;SDS011;8497;51.346;12.396;2024-03-08T15:41:28;33.60;;;20.40;;
16757;SDS011;8497;51.346;12.396;2024-03-08T15:43:57;27.77;;;19.53;;
16757;SDS011;8497;51.346;12.396;2024-03-08T15:46:26;34.63;;;21.47;;
16757;SDS011;8497;51.346;12.396;2024-03-08T15:48:55;31.80;;;20.33;;
16757;SDS011;8497;51.346;12.396;2024-03-08T15:51:24;32.20;;;20.90;;
16757;SDS011;8497;51.346;12.396;2024-03-08T15:53:55;27.33;;;19.57;;
16757;SDS011;8497;51.346;12.396;2024-03-08T15:56:38;29.87;;;20.07;;
16757;SDS011;8497;51.346;12.396;2024-03-08T15:59:16;31.13;;;19.90;;
16757;SDS011;8497;51.346;12.396;2024-03-08T16:01:55;29.83;;;19.90;;
16757;SDS011;8497;51.346;12.396;2024-03-08T16:04:34;32.53;;;20.17;;
16757;SDS011;8497;51.346;12.396;2024-03-08T16:07:15;31.60;;;19.53;;
16757;SDS011;8497;51.346;12.396;2024-03-08T16:09:47;29.70;;;19.97;;
16757;SDS011;8497;51.346;12.396;2024-03-08T16:12:18;29.73;;;19.63;;
16757;SDS011;8497;51.346;12.396;2024-03-08T16:14:55;31.90;;;20.50;;
16757;SDS011;8497;51.346;12.396;2024-03-08T16:17:24;33.97;;;21.93;;
16757;SDS011;8497;51.346;12.396;2024-03-08T16:19:55;31.43;;;20.37;;
16757;SDS011;8497;51.346;12.396;2024-03-08T16:22:27;31.97;;;21.67;;
16757;SDS011;8497;51.346;12.396;2024-03-08T16:25:07;34.23;;;22.27;;
16757;SDS011;8497;51.346;12.396;2024-03-08T16:27:39;32.83;;;21.03;;
16757;SDS011;8497;51.346;12.396;2024-03-08T16:30:25;31.50;;;20.30;;
16757;SDS011;8497;51.346;12.396;2024-03-08T16:34:26;29.40;;;19.47;;